Time;durP1;ratioP1;P1;durP2;ratioP2;P2;SDS_P1;SDS_P2;PMS_P1;PMS_P2;Temp;Humidity;BMP_temperature;BMP_pressure;BME280_temperature;BME280_humidity;BME280_pressure;Samples;Min_cycle;Max_cycle;Signal;HPM_P1;HPM_P2
2023/06/27 00:00:33;;;;;;;8.37;3.70;;;15.80;99.90;;;;;;5017643;28;20463;-60
2023/06/27 00:03:01;;;;;;;8.73;3.30;;;15.80;99.90;;;;;;5018879;28;20487;-60
2023/06/27 00:05:30;;;;;;;9.50;3.50;;;15.80;99.90;;;;;;5017150;28;20474;-60
2023/06/27 00:07:58;;;;;;;8.10;3.80;;;15.80;99.90;;;;;;5011594;28;20471;-60
2023/06/27 00:10:26;;;;;;;8.60;3.73;;;15.70;99.90;;;;;;5016329;28;20551;-60
2023/06/27 00:12:56;;;;;;;4.10;2.93;;;15.70;99.90;;;;;;5015252;28;20535;-60
2023/06/27 00:15:26;;;;;;;8.40;3.80;;;15.70;99.90;;;;;;5012062;28;20484;-60
2023/06/27 00:17:56;;;;;;;8.20;3.30;;;15.70;99.90;;;;;;5011778;28;20590;-60
2023/06/27 00:20:25;;;;;;;4.83;3.17;;;15.70;99.90;;;;;;5011675;28;21002;-60
2023/06/27 00:22:53;;;;;;;9.83;3.43;;;15.70;99.90;;;;;;5006740;28;20506;-60
2023/06/27 00:25:21;;;;;;;9.30;3.40;;;15.70;99.90;;;;;;5010289;28;21172;-58
2023/06/27 00:27:51;;;;;;;6.03;3.67;;;15.60;99.90;;;;;;5007746;28;20555;-60
2023/06/27 00:30:22;;;;;;;8.63;3.53;;;15.60;99.90;;;;;;5007326;28;20521;-59
2023/06/27 00:32:50;;;;;;;5.83;3.20;;;15.60;99.90;;;;;;5002348;28;20491;-60
2023/06/27 00:35:20;;;;;;;9.30;3.83;;;15.60;99.90;;;;;;5014188;28;20483;-59
2023/06/27 00:37:48;;;;;;;10.43;3.10;;;15.60;99.90;;;;;;5005521;28;21020;-60
2023/06/27 00:40:16;;;;;;;4.13;2.90;;;15.50;99.90;;;;;;5011383;28;20472;-60
2023/06/27 00:42:44;;;;;;;6.43;3.47;;;15.50;99.90;;;;;;5012750;28;20504;-60
2023/06/27 00:45:12;;;;;;;6.87;3.50;;;15.50;99.90;;;;;;5013785;28;20486;-60
2023/06/27 00:47:40;;;;;;;11.77;3.93;;;15.50;99.90;;;;;;5011569;28;20558;-60
2023/06/27 00:50:09;;;;;;;4.70;3.03;;;15.50;99.90;;;;;;5009284;28;20474;-59
2023/06/27 00:52:40;;;;;;;9.93;3.80;;;15.40;99.90;;;;;;5010775;28;20492;-59
2023/06/27 00:55:10;;;;;;;6.23;3.40;;;15.40;99.90;;;;;;5012379;28;20503;-60
2023/06/27 00:57:39;;;;;;;7.20;3.37;;;15.40;99.90;;;;;;5011668;28;20468;-59
2023/06/27 01:00:10;;;;;;;6.83;3.53;;;15.40;99.90;;;;;;5010859;28;20510;-60
2023/06/27 01:02:39;;;;;;;11.60;3.67;;;15.30;99.90;;;;;;5009916;28;20495;-60
2023/06/27 01:05:08;;;;;;;5.27;2.97;;;15.30;99.90;;;;;;5016206;28;20779;-60
2023/06/27 01:07:43;;;;;;;7.37;3.40;;;15.30;99.90;;;;;;5009329;28;20497;-60
2023/06/27 01:10:15;;;;;;;6.70;2.87;;;15.30;99.90;;;;;;5015575;28;20469;-59
2023/06/27 01:12:49;;;;;;;6.43;3.33;;;15.20;99.90;;;;;;5012639;28;21099;-60
2023/06/27 01:15:18;;;;;;;6.40;3.00;;;15.20;99.90;;;;;;5009530;28;20572;-60
2023/06/27 01:17:46;;;;;;;5.40;2.70;;;15.20;99.90;;;;;;5012839;28;20571;-59
2023/06/27 01:20:15;;;;;;;6.87;2.93;;;15.30;99.90;;;;;;5012708;28;20572;-60
2023/06/27 01:22:51;;;;;;;5.67;3.17;;;15.20;99.90;;;;;;5008643;28;20626;-60
2023/06/27 01:25:21;;;;;;;7.10;3.23;;;15.20;99.90;;;;;;5012305;28;20484;-60
2023/06/27 01:27:49;;;;;;;6.70;3.20;;;15.20;99.90;;;;;;5012829;28;20479;-60
2023/06/27 01:30:18;;;;;;;5.63;3.03;;;15.20;99.90;;;;;;5008626;28;20555;-60
2023/06/27 01:32:50;;;;;;;6.10;2.77;;;15.20;99.90;;;;;;5009163;28;20498;-60
2023/06/27 01:35:25;;;;;;;6.50;2.80;;;15.20;99.90;;;;;;5012399;28;20972;-59
2023/06/27 01:37:57;;;;;;;5.17;2.60;;;15.20;99.90;;;;;;5012539;28;20560;-59
2023/06/27 01:40:29;;;;;;;5.90;2.73;;;15.20;99.90;;;;;;5008550;28;20492;-59
2023/06/27 01:43:02;;;;;;;7.23;2.87;;;15.20;99.90;;;;;;5022958;28;20530;-60
2023/06/27 01:45:30;;;;;;;6.37;3.40;;;15.20;99.90;;;;;;5033581;28;20511;-60
2023/06/27 01:48:00;;;;;;;5.30;3.07;;;15.20;99.90;;;;;;5017220;28;20534;-61
2023/06/27 01:50:29;;;;;;;5.90;3.17;;;15.20;99.90;;;;;;5016230;28;20533;-60
2023/06/27 01:52:59;;;;;;;5.43;3.63;;;15.20;99.90;;;;;;5012311;28;20498;-60
2023/06/27 01:55:29;;;;;;;6.10;3.30;;;15.20;99.90;;;;;;5020801;28;20475;-60
2023/06/27 01:57:58;;;;;;;5.90;3.10;;;15.20;99.90;;;;;;5025544;28;20471;-60
2023/06/27 02:00:28;;;;;;;9.37;3.40;;;15.20;99.90;;;;;;5012975;28;21670;-60
2023/06/27 02:02:56;;;;;;;4.83;3.23;;;15.20;99.90;;;;;;5011520;28;20911;-60
2023/06/27 02:05:24;;;;;;;7.23;3.80;;;15.10;99.90;;;;;;5015214;28;20471;-60
2023/06/27 02:07:52;;;;;;;5.17;3.00;;;15.10;99.90;;;;;;5012909;28;20618;-60
2023/06/27 02:10:21;;;;;;;5.07;2.83;;;15.10;99.90;;;;;;5012491;28;20546;-60
2023/06/27 02:12:50;;;;;;;4.10;2.63;;;15.10;99.90;;;;;;5014558;28;20498;-60
2023/06/27 02:15:18;;;;;;;7.43;3.37;;;15.10;99.90;;;;;;5013920;28;20506;-61
2023/06/27 02:17:47;;;;;;;7.43;3.70;;;15.10;99.90;;;;;;5013294;28;20468;-60
2023/06/27 02:20:15;;;;;;;6.63;3.00;;;15.10;99.90;;;;;;5015883;28;20499;-60
2023/06/27 02:22:43;;;;;;;6.77;3.40;;;15.10;99.90;;;;;;5014896;28;20586;-60
2023/06/27 02:25:10;;;;;;;8.27;3.37;;;15.10;99.90;;;;;;5014266;28;20487;-60
2023/06/27 02:27:38;;;;;;;5.47;3.50;;;15.10;99.90;;;;;;5012325;28;20498;-60
2023/06/27 02:30:09;;;;;;;8.23;3.60;;;15.10;99.90;;;;;;5012743;28;20469;-59
2023/06/27 02:32:37;;;;;;;7.93;3.50;;;15.10;99.90;;;;;;5012700;28;20501;-59
2023/06/27 02:35:05;;;;;;;5.10;3.30;;;15.00;99.90;;;;;;5009714;28;20956;-60
2023/06/27 02:37:33;;;;;;;7.37;3.27;;;15.00;99.90;;;;;;5011500;28;21051;-59
2023/06/27 02:40:02;;;;;;;7.03;4.03;;;14.90;99.90;;;;;;5015205;28;20872;-60
2023/06/27 02:42:30;;;;;;;5.77;3.40;;;14.90;99.90;;;;;;5016341;28;20519;-60
2023/06/27 02:44:57;;;;;;;5.83;3.00;;;14.90;99.90;;;;;;5012959;28;20491;-59
2023/06/27 02:47:27;;;;;;;7.60;3.20;;;14.90;99.90;;;;;;5014947;28;20558;-60
2023/06/27 02:49:55;;;;;;;7.67;3.73;;;15.00;99.90;;;;;;5014669;28;21196;-60
2023/06/27 02:52:23;;;;;;;7.47;3.40;;;15.00;99.90;;;;;;5012543;28;20590;-60
2023/06/27 02:54:52;;;;;;;5.30;3.70;;;15.00;99.90;;;;;;5012863;28;20464;-60
2023/06/27 02:57:20;;;;;;;8.30;3.13;;;15.10;99.90;;;;;;5013972;28;20463;-60
2023/06/27 02:59:48;;;;;;;5.57;3.17;;;15.00;99.90;;;;;;5013663;28;20510;-60
2023/06/27 03:02:16;;;;;;;5.33;3.23;;;15.00;99.90;;;;;;5009725;28;20582;-59
2023/06/27 03:04:46;;;;;;;5.47;3.33;;;14.90;99.90;;;;;;5015055;28;21007;-60
2023/06/27 03:07:14;;;;;;;3.10;2.80;;;14.90;99.90;;;;;;5016538;28;22190;-60
2023/06/27 03:09:42;;;;;;;4.07;3.10;;;14.90;99.90;;;;;;5018649;28;21036;-60
2023/06/27 03:12:10;;;;;;;3.97;2.90;;;14.80;99.90;;;;;;5015969;28;20488;-59
2023/06/27 03:14:38;;;;;;;6.50;3.63;;;14.80;99.90;;;;;;5016758;28;20463;-60
2023/06/27 03:17:06;;;;;;;4.87;2.70;;;14.80;99.90;;;;;;5014439;28;20472;-60
2023/06/27 03:19:34;;;;;;;4.07;2.83;;;14.80;99.90;;;;;;5015668;28;20490;-61
2023/06/27 03:22:13;;;;;;;3.20;2.50;;;14.70;99.90;;;;;;5016499;28;20490;-60
2023/06/27 03:24:41;;;;;;;3.67;2.73;;;14.70;99.90;;;;;;5019908;28;20617;-60
2023/06/27 03:27:09;;;;;;;3.73;2.40;;;14.80;99.90;;;;;;5019768;28;20475;-60
2023/06/27 03:29:37;;;;;;;5.53;3.30;;;14.80;99.90;;;;;;5018538;28;20562;-60
2023/06/27 03:32:06;;;;;;;5.40;2.90;;;14.80;99.90;;;;;;5012173;28;20590;-60
2023/06/27 03:34:35;;;;;;;5.37;2.93;;;14.80;99.90;;;;;;5011952;28;20958;-59
2023/06/27 03:37:03;;;;;;;5.77;2.60;;;14.70;99.90;;;;;;5018474;28;20554;-59
2023/06/27 03:39:32;;;;;;;5.00;2.97;;;14.70;99.90;;;;;;5019457;28;20494;-60
2023/06/27 03:42:00;;;;;;;4.00;2.60;;;14.70;99.90;;;;;;5010917;28;20518;-60
2023/06/27 03:44:28;;;;;;;2.93;2.73;;;14.70;99.90;;;;;;5017962;28;20503;-60
2023/06/27 03:46:56;;;;;;;4.00;2.77;;;14.80;99.90;;;;;;5016910;28;20570;-59
2023/06/27 03:49:24;;;;;;;9.53;4.00;;;14.80;99.90;;;;;;5017636;28;22151;-60
2023/06/27 03:51:52;;;;;;;4.47;2.70;;;14.80;99.90;;;;;;5012680;28;20586;-59
2023/06/27 03:54:20;;;;;;;5.53;2.60;;;14.80;99.90;;;;;;5020581;28;20479;-60
2023/06/27 03:56:50;;;;;;;2.87;2.50;;;14.70;99.90;;;;;;5020506;28;20474;-60
2023/06/27 03:59:17;;;;;;;2.90;2.70;;;14.70;99.90;;;;;;5017518;28;21004;-60
2023/06/27 04:01:45;;;;;;;4.47;2.80;;;14.70;99.90;;;;;;5017277;28;20491;-63
2023/06/27 04:04:13;;;;;;;6.00;2.93;;;14.70;99.90;;;;;;5017442;28;20529;-60
2023/06/27 04:06:42;;;;;;;4.90;2.70;;;14.70;99.90;;;;;;5016161;28;20467;-60
2023/06/27 04:09:10;;;;;;;2.60;2.40;;;14.70;99.90;;;;;;5014237;28;20476;-59
2023/06/27 04:11:38;;;;;;;6.00;3.20;;;14.80;99.90;;;;;;5015236;28;20948;-60
2023/06/27 04:14:07;;;;;;;4.40;2.60;;;14.80;99.90;;;;;;5015427;28;20609;-61
2023/06/27 04:16:35;;;;;;;2.93;2.63;;;14.80;99.90;;;;;;5015276;28;20471;-60
2023/06/27 04:19:03;;;;;;;3.07;2.80;;;14.80;99.90;;;;;;5009957;28;20854;-60
2023/06/27 04:21:31;;;;;;;3.73;2.67;;;14.80;99.90;;;;;;5011564;28;20545;-60
2023/06/27 04:24:00;;;;;;;4.60;2.53;;;14.80;99.90;;;;;;5013677;28;21074;-60
2023/06/27 04:26:28;;;;;;;3.00;2.53;;;14.90;99.90;;;;;;5018412;28;20483;-60
2023/06/27 04:28:56;;;;;;;4.90;2.60;;;14.90;99.90;;;;;;5016030;28;20468;-60
2023/06/27 04:31:26;;;;;;;6.00;2.93;;;14.90;99.90;;;;;;5022566;28;20483;-60
2023/06/27 04:33:55;;;;;;;4.30;3.27;;;14.90;99.90;;;;;;5014649;28;20529;-60
2023/06/27 04:36:24;;;;;;;4.43;3.00;;;14.90;99.90;;;;;;5007246;28;20483;-60
2023/06/27 04:38:52;;;;;;;4.37;2.60;;;14.90;99.90;;;;;;5007295;28;21185;-60
2023/06/27 04:41:20;;;;;;;3.17;2.77;;;14.90;99.90;;;;;;5006431;28;20862;-60
2023/06/27 04:43:48;;;;;;;3.00;2.70;;;14.90;99.90;;;;;;5006515;28;20485;-60
2023/06/27 04:46:17;;;;;;;6.60;2.83;;;14.90;99.90;;;;;;5004710;28;20571;-60
2023/06/27 04:48:46;;;;;;;3.70;2.50;;;14.90;99.90;;;;;;5010258;28;20933;-59
2023/06/27 04:51:14;;;;;;;4.97;2.70;;;15.00;99.90;;;;;;5007445;28;20503;-60
2023/06/27 04:53:42;;;;;;;2.63;2.30;;;15.00;99.90;;;;;;5006519;28;20594;-61
2023/06/27 04:56:10;;;;;;;3.30;2.30;;;15.00;99.90;;;;;;5004325;28;21048;-59
2023/06/27 04:58:38;;;;;;;4.50;3.20;;;15.10;99.90;;;;;;5010329;28;20506;-60
2023/06/27 05:01:06;;;;;;;5.10;3.13;;;15.20;99.90;;;;;;5000734;28;20483;-61
2023/06/27 05:03:37;;;;;;;2.80;2.33;;;15.20;99.90;;;;;;5004461;28;20475;-58
2023/06/27 05:06:08;;;;;;;2.43;2.23;;;15.10;99.90;;;;;;5008600;28;20471;-60
2023/06/27 05:08:37;;;;;;;4.43;2.10;;;15.00;99.90;;;;;;5012667;28;21031;-60
2023/06/27 05:11:05;;;;;;;3.87;1.83;;;14.90;99.90;;;;;;4998570;28;20534;-58
2023/06/27 05:13:33;;;;;;;2.23;2.00;;;14.80;99.90;;;;;;5000495;28;20477;-59
2023/06/27 05:16:01;;;;;;;3.53;1.90;;;14.70;99.90;;;;;;5008941;28;20477;-60
2023/06/27 05:18:29;;;;;;;3.47;1.80;;;14.70;99.90;;;;;;5009583;28;20558;-60
2023/06/27 05:20:57;;;;;;;3.50;1.97;;;14.70;99.90;;;;;;5012934;28;20531;-60
2023/06/27 05:23:26;;;;;;;2.40;1.93;;;14.70;99.90;;;;;;5005736;28;20541;-59
2023/06/27 05:25:55;;;;;;;1.83;1.70;;;14.70;99.90;;;;;;4999767;28;20483;-59
2023/06/27 05:28:23;;;;;;;3.20;2.50;;;14.70;99.90;;;;;;5009428;28;20503;-58
2023/06/27 05:30:51;;;;;;;3.90;2.30;;;14.80;99.90;;;;;;5009296;28;20464;-59
2023/06/27 05:33:19;;;;;;;3.23;2.53;;;14.80;99.90;;;;;;5001231;28;20487;-59
2023/06/27 05:35:47;;;;;;;3.50;3.00;;;14.70;99.90;;;;;;5005123;28;20530;-60
2023/06/27 05:38:16;;;;;;;3.23;2.90;;;14.70;99.90;;;;;;5016317;28;20472;-61
2023/06/27 05:40:45;;;;;;;3.37;3.03;;;14.60;99.90;;;;;;5012243;28;20570;-60
2023/06/27 05:43:13;;;;;;;4.13;3.30;;;14.60;99.90;;;;;;5014841;28;20590;-60
2023/06/27 05:45:41;;;;;;;4.30;3.77;;;14.70;99.90;;;;;;5013369;28;20823;-60
2023/06/27 05:48:10;;;;;;;4.40;3.90;;;14.70;99.90;;;;;;5010269;28;20475;-58
2023/06/27 05:50:38;;;;;;;4.23;3.73;;;14.80;99.90;;;;;;5012002;28;20558;-60
2023/06/27 05:53:06;;;;;;;5.97;4.40;;;14.90;99.90;;;;;;5018831;28;20562;-60
2023/06/27 05:55:34;;;;;;;4.77;4.30;;;14.90;99.90;;;;;;5017811;28;20471;-60
2023/06/27 05:58:03;;;;;;;7.13;4.90;;;15.00;99.90;;;;;;5017554;28;20543;-60
2023/06/27 06:00:31;;;;;;;6.67;5.13;;;15.10;99.90;;;;;;5017735;28;20475;-60
2023/06/27 06:02:59;;;;;;;6.73;5.10;;;15.20;99.90;;;;;;5016063;28;20586;-60
2023/06/27 06:05:27;;;;;;;7.20;4.77;;;15.20;99.90;;;;;;5017932;28;20525;-59
2023/06/27 06:07:55;;;;;;;5.77;4.73;;;15.30;99.90;;;;;;5015720;28;21046;-60
2023/06/27 06:10:23;;;;;;;7.00;4.13;;;15.30;99.90;;;;;;5021104;28;20563;-60
2023/06/27 06:12:51;;;;;;;4.67;4.30;;;15.30;99.90;;;;;;5018943;28;22239;-60
2023/06/27 06:15:21;;;;;;;3.70;3.40;;;15.30;99.90;;;;;;5019321;28;20475;-60
2023/06/27 06:17:49;;;;;;;4.40;3.20;;;15.40;99.90;;;;;;5020105;28;20478;-61
2023/06/27 06:20:17;;;;;;;6.20;3.97;;;15.40;99.90;;;;;;5013492;28;20474;-60
2023/06/27 06:22:45;;;;;;;5.73;3.20;;;15.40;99.90;;;;;;5015579;28;20518;-61
2023/06/27 06:25:13;;;;;;;4.00;3.20;;;15.50;99.90;;;;;;5022630;28;20502;-59
2023/06/27 06:27:41;;;;;;;3.77;3.37;;;15.50;99.90;;;;;;5019578;28;20476;-60
2023/06/27 06:30:10;;;;;;;3.80;3.00;;;15.50;99.90;;;;;;5023680;28;20499;-59
2023/06/27 06:32:40;;;;;;;3.97;2.90;;;15.50;99.90;;;;;;5021384;28;20570;-59
2023/06/27 06:35:08;;;;;;;4.67;3.00;;;15.60;99.90;;;;;;5022707;28;20471;-59
2023/06/27 06:37:36;;;;;;;6.03;2.80;;;15.60;99.90;;;;;;5019957;28;20487;-60
2023/06/27 06:40:06;;;;;;;8.77;3.23;;;15.60;99.90;;;;;;5023695;28;20472;-59
2023/06/27 06:42:34;;;;;;;3.33;3.00;;;15.60;99.90;;;;;;5022196;28;20487;-59
2023/06/27 06:45:03;;;;;;;4.87;3.00;;;15.70;99.90;;;;;;5021589;28;20530;-60
2023/06/27 06:47:31;;;;;;;3.17;2.90;;;15.70;99.90;;;;;;5022054;28;20481;-59
2023/06/27 06:50:01;;;;;;;3.10;2.80;;;15.80;99.90;;;;;;5020758;28;20882;-60
2023/06/27 06:52:30;;;;;;;7.23;3.03;;;15.90;99.90;;;;;;5018815;28;20842;-60
2023/06/27 06:54:57;;;;;;;6.00;3.40;;;15.90;99.90;;;;;;5022031;28;20507;-60
2023/06/27 06:57:25;;;;;;;4.40;2.77;;;16.10;99.90;;;;;;5021487;28;20517;-60
2023/06/27 06:59:53;;;;;;;5.37;2.57;;;16.10;99.90;;;;;;5017769;28;20531;-60
2023/06/27 07:02:21;;;;;;;3.23;2.77;;;16.00;99.90;;;;;;5021094;28;21045;-60
2023/06/27 07:04:49;;;;;;;6.43;3.43;;;16.10;99.90;;;;;;5024767;28;20575;-60
2023/06/27 07:07:19;;;;;;;4.20;3.07;;;16.20;99.90;;;;;;5023539;28;21054;-60
2023/06/27 07:09:47;;;;;;;4.93;3.00;;;16.30;99.90;;;;;;5024410;28;20471;-60
2023/06/27 07:12:15;;;;;;;5.97;2.90;;;16.30;99.90;;;;;;5022409;28;20491;-60
2023/06/27 07:14:46;;;;;;;4.97;2.63;;;16.30;99.90;;;;;;5020194;28;20522;-60
2023/06/27 07:17:14;;;;;;;3.53;2.90;;;16.20;99.90;;;;;;5024463;28;20497;-61
2023/06/27 07:19:42;;;;;;;5.90;3.60;;;16.20;99.90;;;;;;5024193;28;20499;-61
2023/06/27 07:22:10;;;;;;;5.30;2.67;;;16.20;99.90;;;;;;5023454;28;20511;-61
2023/06/27 07:24:40;;;;;;;3.93;2.20;;;16.20;99.90;;;;;;5022868;28;20573;-61
2023/06/27 07:27:09;;;;;;;4.20;3.00;;;16.20;99.90;;;;;;5022923;28;20555;-61
2023/06/27 07:29:37;;;;;;;4.17;3.00;;;16.20;99.90;;;;;;5023718;28;20472;-60
2023/06/27 07:32:06;;;;;;;4.07;3.40;;;16.10;99.90;;;;;;5021318;28;20492;-60
2023/06/27 07:34:34;;;;;;;4.73;2.80;;;16.10;99.90;;;;;;5012128;28;20493;-60
2023/06/27 07:37:03;;;;;;;7.83;3.10;;;16.00;99.90;;;;;;5018556;28;20578;-59
2023/06/27 07:39:31;;;;;;;3.47;3.20;;;16.00;99.90;;;;;;5019814;28;20536;-60
2023/06/27 07:42:00;;;;;;;6.77;3.60;;;16.00;99.90;;;;;;5018698;28;20874;-61
2023/06/27 07:44:28;;;;;;;4.63;3.50;;;16.00;99.90;;;;;;5020652;28;20495;-61
2023/06/27 07:46:56;;;;;;;5.03;3.90;;;16.00;99.90;;;;;;5021009;28;20467;-60
2023/06/27 07:49:24;;;;;;;5.40;3.50;;;16.00;99.90;;;;;;5021433;28;20471;-60
2023/06/27 07:51:52;;;;;;;5.43;2.93;;;16.00;99.90;;;;;;5019100;28;20495;-60
2023/06/27 07:54:21;;;;;;;4.27;2.43;;;15.90;99.90;;;;;;5015186;28;20472;-60
2023/06/27 07:56:49;;;;;;;3.23;1.87;;;15.80;99.90;;;;;;5018113;28;20482;-60
2023/06/27 07:59:18;;;;;;;4.17;2.00;;;15.60;99.90;;;;;;5019880;28;20502;-60
2023/06/27 08:01:46;;;;;;;2.77;2.00;;;15.50;99.90;;;;;;5018832;28;20955;-59
2023/06/27 08:04:15;;;;;;;2.03;1.90;;;15.40;99.90;;;;;;5018192;28;20486;-59
2023/06/27 08:06:43;;;;;;;3.33;2.43;;;15.40;99.90;;;;;;5017678;28;20478;-59
2023/06/27 08:09:12;;;;;;;2.67;2.30;;;15.40;99.90;;;;;;5018369;28;20483;-60
2023/06/27 08:11:40;;;;;;;2.53;2.33;;;15.40;99.90;;;;;;5015975;28;21015;-58
2023/06/27 08:14:08;;;;;;;4.00;3.13;;;15.40;99.90;;;;;;5018353;28;21046;-60
2023/06/27 08:16:37;;;;;;;5.87;3.43;;;15.40;99.90;;;;;;5021484;28;21037;-60
2023/06/27 08:19:05;;;;;;;4.87;2.97;;;15.50;99.90;;;;;;5021176;28;20468;-59
2023/06/27 08:21:33;;;;;;;3.60;2.53;;;15.50;99.90;;;;;;5017441;28;20496;-60
2023/06/27 08:24:01;;;;;;;3.00;2.73;;;15.50;99.90;;;;;;5017294;28;20889;-59
2023/06/27 08:26:29;;;;;;;4.30;3.10;;;15.60;99.90;;;;;;5016381;28;20478;-60
2023/06/27 08:28:57;;;;;;;4.50;2.63;;;15.80;99.90;;;;;;5018470;28;20538;-60
2023/06/27 08:31:25;;;;;;;4.57;3.03;;;15.90;99.90;;;;;;5016237;28;21083;-59
2023/06/27 08:33:55;;;;;;;4.17;3.33;;;16.00;99.90;;;;;;5017988;28;21061;-59
2023/06/27 08:36:23;;;;;;;3.63;3.30;;;16.00;99.90;;;;;;5012951;28;20886;-60
2023/06/27 08:38:51;;;;;;;5.23;3.50;;;15.90;99.90;;;;;;5019591;28;20551;-59
2023/06/27 08:41:20;;;;;;;8.33;3.63;;;15.90;99.90;;;;;;5018742;28;20491;-59
2023/06/27 08:43:48;;;;;;;4.23;3.23;;;15.80;99.90;;;;;;5018076;28;21022;-60
2023/06/27 08:46:18;;;;;;;5.47;3.10;;;15.80;99.90;;;;;;5020670;28;20467;-60
2023/06/27 08:48:46;;;;;;;3.83;2.90;;;15.80;99.90;;;;;;5017561;28;20587;-60
2023/06/27 08:51:18;;;;;;;5.20;3.40;;;15.80;99.90;;;;;;5015527;28;20498;-60
2023/06/27 08:53:49;;;;;;;3.63;2.90;;;15.80;99.90;;;;;;5017136;28;20463;-59
2023/06/27 08:56:19;;;;;;;3.73;2.50;;;15.70;99.90;;;;;;5018067;28;20563;-59
2023/06/27 08:58:51;;;;;;;4.40;2.93;;;15.70;99.90;;;;;;5020197;28;20467;-60
2023/06/27 09:01:19;;;;;;;3.83;3.07;;;15.80;99.90;;;;;;5021066;28;20510;-59
2023/06/27 09:03:47;;;;;;;2.70;2.50;;;15.80;99.90;;;;;;5020908;28;20492;-60
2023/06/27 09:06:18;;;;;;;3.60;3.30;;;15.90;99.90;;;;;;5021486;28;20847;-60
2023/06/27 09:08:48;;;;;;;5.03;3.17;;;16.00;99.90;;;;;;5019202;28;20475;-60
2023/06/27 09:11:16;;;;;;;4.83;2.57;;;16.10;99.90;;;;;;5028326;28;20567;-60
2023/06/27 09:13:44;;;;;;;3.10;2.67;;;16.20;99.90;;;;;;5032599;28;20460;-60
2023/06/27 09:16:13;;;;;;;3.80;3.07;;;16.30;99.90;;;;;;5034037;28;20502;-60
2023/06/27 09:18:41;;;;;;;3.57;2.87;;;16.50;99.90;;;;;;5030600;28;20472;-60
2023/06/27 09:21:10;;;;;;;2.80;2.60;;;16.70;99.90;;;;;;5021305;28;21008;-60
2023/06/27 09:23:39;;;;;;;2.43;2.20;;;16.90;99.90;;;;;;5019313;28;21092;-60
2023/06/27 09:26:08;;;;;;;2.63;2.20;;;17.10;99.90;;;;;;5019324;28;20501;-59
2023/06/27 09:28:47;;;;;;;4.07;2.30;;;17.20;99.90;;;;;;5018330;28;20471;-60
2023/06/27 09:31:18;;;;;;;4.70;2.60;;;17.20;99.90;;;;;;5019386;28;20478;-60
2023/06/27 09:33:47;;;;;;;2.07;1.80;;;17.20;99.90;;;;;;5015311;28;20559;-60
2023/06/27 09:36:31;;;;;;;3.03;2.20;;;17.30;99.90;;;;;;5016140;28;20478;-60
2023/06/27 09:39:05;;;;;;;2.77;2.47;;;17.40;99.90;;;;;;5016398;28;20907;-60
2023/06/27 09:41:42;;;;;;;2.60;2.17;;;17.60;99.90;;;;;;5013253;28;20613;-60
2023/06/27 09:44:15;;;;;;;3.67;2.30;;;17.70;99.90;;;;;;5020130;28;20527;-60
2023/06/27 09:46:44;;;;;;;3.10;2.07;;;17.80;99.90;;;;;;5016856;28;20522;-60
2023/06/27 09:49:13;;;;;;;2.67;2.10;;;17.90;99.90;;;;;;5016289;28;20547;-60
2023/06/27 09:51:41;;;;;;;3.60;2.17;;;17.90;99.90;;;;;;5017278;28;20519;-60
2023/06/27 09:54:12;;;;;;;3.43;2.17;;;18.00;99.90;;;;;;5015400;28;20554;-60
2023/06/27 09:56:44;;;;;;;2.43;2.10;;;18.00;99.90;;;;;;5018367;28;20478;-60
2023/06/27 09:59:13;;;;;;;2.03;1.93;;;18.10;99.90;;;;;;5015553;28;20550;-60
2023/06/27 10:02:01;;;;;;;4.20;2.00;;;18.20;99.90;;;;;;5017174;28;20495;-60
2023/06/27 10:04:29;;;;;;;2.57;1.87;;;18.20;99.90;;;;;;5013374;28;21114;-60
2023/06/27 10:07:14;;;;;;;3.67;1.73;;;18.30;99.90;;;;;;5017660;28;20526;-60
2023/06/27 10:09:44;;;;;;;4.07;2.00;;;18.50;99.90;;;;;;5014905;28;20615;-59
2023/06/27 10:12:14;;;;;;;2.80;1.80;;;18.60;99.90;;;;;;5016828;28;20603;-60
2023/06/27 10:14:44;;;;;;;2.90;1.80;;;18.70;99.90;;;;;;5017845;28;20979;-61
2023/06/27 10:17:18;;;;;;;3.10;1.77;;;18.70;99.90;;;;;;5012574;28;20586;-60
2023/06/27 10:19:47;;;;;;;2.20;1.50;;;18.80;99.90;;;;;;5013519;28;20471;-60
2023/06/27 10:22:17;;;;;;;3.67;2.00;;;18.80;99.90;;;;;;5012510;28;20586;-60
2023/06/27 10:24:49;;;;;;;1.47;1.37;;;19.00;99.90;;;;;;5010459;28;21146;-60
2023/06/27 10:27:20;;;;;;;3.60;2.20;;;19.20;99.90;;;;;;5014498;28;20467;-60
2023/06/27 10:29:48;;;;;;;5.50;2.00;;;19.30;99.90;;;;;;5015646;28;20467;-60
2023/06/27 10:32:18;;;;;;;4.93;2.10;;;19.30;99.90;;;;;;5011893;28;20590;-61
2023/06/27 10:34:46;;;;;;;2.87;1.70;;;19.30;99.90;;;;;;5013288;28;21016;-60
2023/06/27 10:37:25;;;;;;;1.93;1.30;;;19.30;99.90;;;;;;5014750;28;20852;-61
2023/06/27 10:40:00;;;;;;;2.53;1.47;;;19.30;99.90;;;;;;5014587;28;20606;-60
2023/06/27 10:42:31;;;;;;;2.63;1.37;;;19.40;99.90;;;;;;5009946;28;20491;-60
2023/06/27 10:45:02;;;;;;;1.83;1.30;;;19.50;99.90;;;;;;5018887;28;20487;-60
2023/06/27 10:47:34;;;;;;;1.90;1.60;;;19.60;99.90;;;;;;5011128;28;20496;-60
2023/06/27 10:50:12;;;;;;;2.63;1.37;;;19.80;99.90;;;;;;5017214;28;20545;-60
2023/06/27 10:52:42;;;;;;;4.20;1.60;;;19.80;99.90;;;;;;5011759;28;20483;-60
2023/06/27 10:55:22;;;;;;;2.70;1.37;;;19.80;99.90;;;;;;5015226;28;20469;-60
2023/06/27 10:57:57;;;;;;;2.80;1.40;;;19.70;99.90;;;;;;5015311;28;20610;-60
2023/06/27 11:00:29;;;;;;;3.37;1.70;;;19.60;99.90;;;;;;5017386;28;20520;-60
2023/06/27 11:02:57;;;;;;;3.40;1.50;;;19.60;99.90;;;;;;5012151;28;20556;-60
2023/06/27 11:05:46;;;;;;;8.07;1.60;;;19.60;99.90;;;;;;5015709;28;20498;-60
2023/06/27 11:08:16;;;;;;;2.60;1.30;;;19.80;99.90;;;;;;5014494;28;20479;-60
2023/06/27 11:11:04;;;;;;;1.93;1.37;;;20.00;99.90;;;;;;5016656;28;21046;-60
2023/06/27 11:13:35;;;;;;;4.07;1.83;;;20.10;99.90;;;;;;5016520;28;20467;-60
2023/06/27 11:16:03;;;;;;;3.60;3.00;;;20.20;99.90;;;;;;5019097;28;20558;-60
2023/06/27 11:18:31;;;;;;;8.40;5.40;;;20.40;99.90;;;;;;5020501;28;20482;-60
2023/06/27 11:20:59;;;;;;;9.50;8.33;;;20.40;99.90;;;;;;5015805;28;20517;-60
2023/06/27 11:23:29;;;;;;;8.13;6.10;;;20.30;99.90;;;;;;5016544;28;20545;-60
2023/06/27 11:25:59;;;;;;;4.13;3.13;;;20.20;99.90;;;;;;5016568;28;20908;-61
2023/06/27 11:28:27;;;;;;;4.93;3.17;;;20.20;99.90;;;;;;5012062;28;20485;-61
2023/06/27 11:31:00;;;;;;;4.07;2.07;;;20.10;99.90;;;;;;5009128;28;20468;-60
2023/06/27 11:33:29;;;;;;;6.43;3.33;;;20.20;99.90;;;;;;5018330;28;20828;-61
2023/06/27 11:35:59;;;;;;;2.70;1.87;;;20.20;99.90;;;;;;5023174;28;20468;-60
2023/06/27 11:38:28;;;;;;;2.40;1.80;;;20.30;99.90;;;;;;5018185;28;20507;-61
2023/06/27 11:40:57;;;;;;;2.30;1.80;;;20.50;99.90;;;;;;5021502;28;20495;-61
2023/06/27 11:43:27;;;;;;;2.90;1.93;;;20.70;99.90;;;;;;5019265;28;20483;-61
2023/06/27 11:45:57;;;;;;;5.27;1.80;;;20.70;99.90;;;;;;5018307;28;20478;-61
2023/06/27 11:48:25;;;;;;;4.30;2.00;;;20.90;99.90;;;;;;5021416;28;20506;-61
2023/06/27 11:50:58;;;;;;;2.97;1.53;;;20.80;99.90;;;;;;5006910;28;20554;-59
2023/06/27 11:53:28;;;;;;;2.83;1.53;;;20.50;99.90;;;;;;5005566;28;20476;-62
2023/06/27 11:55:57;;;;;;;2.63;1.80;;;20.20;99.90;;;;;;5010099;28;20495;-60
2023/06/27 11:58:31;;;;;;;3.47;1.90;;;20.10;99.90;;;;;;5012181;28;20468;-60
2023/06/27 12:01:00;;;;;;;3.97;1.60;;;20.10;99.90;;;;;;5014290;28;20558;-60
2023/06/27 12:03:30;;;;;;;4.13;2.10;;;20.10;99.90;;;;;;5018137;28;20475;-60
2023/06/27 12:05:59;;;;;;;4.40;2.03;;;20.10;99.90;;;;;;5018366;28;20499;-60
2023/06/27 12:08:31;;;;;;;2.83;1.50;;;20.30;99.90;;;;;;5018579;28;20471;-60
2023/06/27 12:11:02;;;;;;;2.23;1.47;;;20.50;99.90;;;;;;5018545;28;20563;-59
2023/06/27 12:13:33;;;;;;;2.83;1.40;;;20.80;99.90;;;;;;5019337;28;20476;-61
2023/06/27 12:16:03;;;;;;;3.60;1.97;;;20.90;99.90;;;;;;5017234;28;20991;-60
2023/06/27 12:18:31;;;;;;;4.10;1.90;;;21.00;99.90;;;;;;5016198;28;20505;-60
2023/06/27 12:21:00;;;;;;;5.30;1.80;;;21.20;99.90;;;;;;5017447;28;20546;-60
2023/06/27 12:23:29;;;;;;;1.97;1.40;;;21.20;99.90;;;;;;5015626;28;20526;-60
2023/06/27 12:25:57;;;;;;;4.03;2.10;;;21.00;99.90;;;;;;5016615;28;20516;-60
2023/06/27 12:28:26;;;;;;;1.33;1.13;;;20.70;99.90;;;;;;5018796;28;21047;-60
2023/06/27 12:30:56;;;;;;;1.97;1.47;;;20.40;99.90;;;;;;5015068;28;21008;-60
2023/06/27 12:33:24;;;;;;;1.43;1.33;;;20.10;99.90;;;;;;5020403;28;20472;-60
2023/06/27 12:35:53;;;;;;;4.17;1.13;;;19.90;99.90;;;;;;5019663;28;20995;-60
2023/06/27 12:38:21;;;;;;;1.17;1.07;;;19.70;99.90;;;;;;5018357;28;20828;-60
2023/06/27 12:40:49;;;;;;;2.00;1.17;;;19.60;99.90;;;;;;5016030;28;20563;-58
2023/06/27 12:43:17;;;;;;;1.30;1.20;;;19.50;99.90;;;;;;5017584;28;20527;-59
2023/06/27 12:46:00;;;;;;;1.37;1.27;;;19.50;99.90;;;;;;5018791;28;21099;-59
2023/06/27 12:48:28;;;;;;;1.73;1.20;;;19.60;99.90;;;;;;5017185;28;20497;-60
2023/06/27 12:50:56;;;;;;;1.60;1.00;;;19.80;99.90;;;;;;5014832;28;21062;-60
2023/06/27 12:53:24;;;;;;;2.67;1.10;;;20.00;99.90;;;;;;5015965;28;20558;-60
2023/06/27 12:55:52;;;;;;;1.90;1.67;;;20.20;99.90;;;;;;5016578;28;20502;-59